sensor_id;sensor_type;location;lat;lon;timestamp;P1;durP1;ratioP1;P2;durP2;ratioP2
52542;SDS011;38449;52.696;6.186;2023-04-15T00:02:17;11.80;;;6.53;;
52542;SDS011;38449;52.696;6.186;2023-04-15T00:04:44;9.73;;;7.10;;
52542;SDS011;38449;52.696;6.186;2023-04-15T00:07:11;10.27;;;6.50;;
52542;SDS011;38449;52.696;6.186;2023-04-15T00:09:38;9.45;;;6.30;;
52542;SDS011;38449;52.696;6.186;2023-04-15T00:12:04;9.80;;;5.80;;
52542;SDS011;38449;52.696;6.186;2023-04-15T00:14:31;9.40;;;6.78;;
52542;SDS011;38449;52.696;6.186;2023-04-15T00:16:58;10.70;;;6.15;;
52542;SDS011;38449;52.696;6.186;2023-04-15T00:19:28;8.98;;;6.10;;
52542;SDS011;38449;52.696;6.186;2023-04-15T00:21:54;10.95;;;5.95;;
52542;SDS011;38449;52.696;6.186;2023-04-15T00:24:21;8.95;;;5.90;;
52542;SDS011;38449;52.696;6.186;2023-04-15T00:26:48;8.32;;;6.22;;
52542;SDS011;38449;52.696;6.186;2023-04-15T00:29:17;10.68;;;6.13;;
52542;SDS011;38449;52.696;6.186;2023-04-15T00:31:46;7.82;;;5.63;;
52542;SDS011;38449;52.696;6.186;2023-04-15T00:34:13;7.90;;;6.72;;
52542;SDS011;38449;52.696;6.186;2023-04-15T00:36:39;6.85;;;5.60;;
52542;SDS011;38449;52.696;6.186;2023-04-15T00:39:05;8.35;;;5.63;;
52542;SDS011;38449;52.696;6.186;2023-04-15T00:41:32;9.05;;;6.18;;
52542;SDS011;38449;52.696;6.186;2023-04-15T00:43:59;7.82;;;5.72;;
52542;SDS011;38449;52.696;6.186;2023-04-15T00:46:27;8.18;;;6.82;;
52542;SDS011;38449;52.696;6.186;2023-04-15T00:48:55;9.43;;;6.45;;
52542;SDS011;38449;52.696;6.186;2023-04-15T00:51:21;10.25;;;7.07;;
52542;SDS011;38449;52.696;6.186;2023-04-15T00:53:49;10.10;;;6.07;;
52542;SDS011;38449;52.696;6.186;2023-04-15T00:56:16;8.45;;;6.22;;
52542;SDS011;38449;52.696;6.186;2023-04-15T00:58:44;10.82;;;6.70;;
52542;SDS011;38449;52.696;6.186;2023-04-15T01:01:11;11.60;;;5.97;;
52542;SDS011;38449;52.696;6.186;2023-04-15T01:03:37;8.30;;;5.82;;
52542;SDS011;38449;52.696;6.186;2023-04-15T01:06:03;7.13;;;6.03;;
52542;SDS011;38449;52.696;6.186;2023-04-15T01:08:30;10.27;;;6.63;;
52542;SDS011;38449;52.696;6.186;2023-04-15T01:10:56;11.73;;;5.93;;
52542;SDS011;38449;52.696;6.186;2023-04-15T01:13:26;10.23;;;6.82;;
52542;SDS011;38449;52.696;6.186;2023-04-15T01:16:01;8.32;;;6.38;;
52542;SDS011;38449;52.696;6.186;2023-04-15T01:18:28;10.48;;;6.40;;
52542;SDS011;38449;52.696;6.186;2023-04-15T01:20:55;8.02;;;6.28;;
52542;SDS011;38449;52.696;6.186;2023-04-15T01:23:21;9.35;;;6.45;;
52542;SDS011;38449;52.696;6.186;2023-04-15T01:25:49;9.23;;;6.13;;
52542;SDS011;38449;52.696;6.186;2023-04-15T01:28:15;7.20;;;6.47;;
52542;SDS011;38449;52.696;6.186;2023-04-15T01:30:42;8.15;;;6.22;;
52542;SDS011;38449;52.696;6.186;2023-04-15T01:33:09;10.95;;;7.10;;
52542;SDS011;38449;52.696;6.186;2023-04-15T01:35:35;11.10;;;6.70;;
52542;SDS011;38449;52.696;6.186;2023-04-15T01:38:06;10.18;;;6.30;;
52542;SDS011;38449;52.696;6.186;2023-04-15T01:40:38;10.52;;;7.00;;
52542;SDS011;38449;52.696;6.186;2023-04-15T01:43:19;9.02;;;7.05;;
52542;SDS011;38449;52.696;6.186;2023-04-15T01:45:45;9.52;;;6.85;;
52542;SDS011;38449;52.696;6.186;2023-04-15T01:48:12;10.00;;;6.43;;
52542;SDS011;38449;52.696;6.186;2023-04-15T01:50:38;8.52;;;5.97;;
52542;SDS011;38449;52.696;6.186;2023-04-15T01:53:05;12.68;;;7.68;;
52542;SDS011;38449;52.696;6.186;2023-04-15T01:55:31;8.57;;;7.05;;
52542;SDS011;38449;52.696;6.186;2023-04-15T01:57:57;10.00;;;7.78;;
52542;SDS011;38449;52.696;6.186;2023-04-15T02:00:23;11.10;;;8.38;;
52542;SDS011;38449;52.696;6.186;2023-04-15T02:02:50;10.68;;;6.78;;
52542;SDS011;38449;52.696;6.186;2023-04-15T02:05:16;11.50;;;6.38;;
52542;SDS011;38449;52.696;6.186;2023-04-15T02:07:42;9.75;;;6.93;;
52542;SDS011;38449;52.696;6.186;2023-04-15T02:10:08;10.63;;;6.75;;
52542;SDS011;38449;52.696;6.186;2023-04-15T02:12:36;11.75;;;6.55;;
52542;SDS011;38449;52.696;6.186;2023-04-15T02:15:02;10.52;;;7.18;;
52542;SDS011;38449;52.696;6.186;2023-04-15T02:17:28;10.57;;;6.85;;
52542;SDS011;38449;52.696;6.186;2023-04-15T02:19:55;12.18;;;7.47;;
52542;SDS011;38449;52.696;6.186;2023-04-15T02:22:21;8.90;;;6.03;;
52542;SDS011;38449;52.696;6.186;2023-04-15T02:24:47;9.07;;;6.35;;
52542;SDS011;38449;52.696;6.186;2023-04-15T02:27:14;8.82;;;7.13;;
52542;SDS011;38449;52.696;6.186;2023-04-15T02:29:43;9.15;;;5.93;;
52542;SDS011;38449;52.696;6.186;2023-04-15T02:32:11;9.15;;;6.57;;
52542;SDS011;38449;52.696;6.186;2023-04-15T02:34:38;10.05;;;6.45;;
52542;SDS011;38449;52.696;6.186;2023-04-15T02:37:09;8.82;;;6.65;;
52542;SDS011;38449;52.696;6.186;2023-04-15T02:39:36;10.18;;;6.57;;
52542;SDS011;38449;52.696;6.186;2023-04-15T02:42:02;10.07;;;5.85;;
52542;SDS011;38449;52.696;6.186;2023-04-15T02:44:30;11.43;;;6.65;;
52542;SDS011;38449;52.696;6.186;2023-04-15T02:46:57;7.75;;;6.25;;
52542;SDS011;38449;52.696;6.186;2023-04-15T02:49:24;8.77;;;6.47;;
52542;SDS011;38449;52.696;6.186;2023-04-15T02:51:50;9.82;;;5.88;;
52542;SDS011;38449;52.696;6.186;2023-04-15T02:54:18;9.02;;;6.43;;
52542;SDS011;38449;52.696;6.186;2023-04-15T02:56:44;11.82;;;6.40;;
52542;SDS011;38449;52.696;6.186;2023-04-15T02:59:11;11.00;;;6.50;;
52542;SDS011;38449;52.696;6.186;2023-04-15T03:01:38;9.15;;;6.70;;
52542;SDS011;38449;52.696;6.186;2023-04-15T03:04:04;10.93;;;7.07;;
52542;SDS011;38449;52.696;6.186;2023-04-15T03:06:32;8.50;;;7.10;;
52542;SDS011;38449;52.696;6.186;2023-04-15T03:08:58;11.25;;;7.07;;
52542;SDS011;38449;52.696;6.186;2023-04-15T03:11:25;8.18;;;6.75;;
52542;SDS011;38449;52.696;6.186;2023-04-15T03:13:52;10.43;;;6.75;;
52542;SDS011;38449;52.696;6.186;2023-04-15T03:16:19;9.95;;;6.82;;
52542;SDS011;38449;52.696;6.186;2023-04-15T03:18:45;11.68;;;6.88;;
52542;SDS011;38449;52.696;6.186;2023-04-15T03:21:11;12.43;;;7.28;;
52542;SDS011;38449;52.696;6.186;2023-04-15T03:23:38;9.20;;;7.65;;
52542;SDS011;38449;52.696;6.186;2023-04-15T03:26:04;9.48;;;7.72;;
52542;SDS011;38449;52.696;6.186;2023-04-15T03:28:30;10.30;;;6.90;;
52542;SDS011;38449;52.696;6.186;2023-04-15T03:30:57;11.48;;;8.02;;
52542;SDS011;38449;52.696;6.186;2023-04-15T03:33:24;10.90;;;7.22;;
52542;SDS011;38449;52.696;6.186;2023-04-15T03:35:51;11.40;;;7.05;;
52542;SDS011;38449;52.696;6.186;2023-04-15T03:38:18;13.38;;;7.80;;
52542;SDS011;38449;52.696;6.186;2023-04-15T03:40:45;10.48;;;6.63;;
52542;SDS011;38449;52.696;6.186;2023-04-15T03:43:12;9.38;;;7.28;;
52542;SDS011;38449;52.696;6.186;2023-04-15T03:45:38;12.40;;;7.88;;
52542;SDS011;38449;52.696;6.186;2023-04-15T03:48:05;9.88;;;6.88;;
52542;SDS011;38449;52.696;6.186;2023-04-15T03:50:31;10.48;;;7.28;;
52542;SDS011;38449;52.696;6.186;2023-04-15T03:52:57;12.57;;;8.48;;
52542;SDS011;38449;52.696;6.186;2023-04-15T03:55:23;12.10;;;7.47;;
52542;SDS011;38449;52.696;6.186;2023-04-15T03:57:51;10.52;;;7.35;;
52542;SDS011;38449;52.696;6.186;2023-04-15T04:00:17;14.45;;;7.82;;
52542;SDS011;38449;52.696;6.186;2023-04-15T04:02:44;10.77;;;7.60;;
52542;SDS011;38449;52.696;6.186;2023-04-15T04:05:10;11.57;;;7.30;;
52542;SDS011;38449;52.696;6.186;2023-04-15T04:07:36;12.82;;;7.75;;
52542;SDS011;38449;52.696;6.186;2023-04-15T04:10:03;9.88;;;7.63;;
52542;SDS011;38449;52.696;6.186;2023-04-15T04:12:29;11.50;;;8.00;;
52542;SDS011;38449;52.696;6.186;2023-04-15T04:14:56;11.20;;;8.25;;
52542;SDS011;38449;52.696;6.186;2023-04-15T04:17:22;11.27;;;8.77;;
52542;SDS011;38449;52.696;6.186;2023-04-15T04:19:48;9.63;;;7.82;;
52542;SDS011;38449;52.696;6.186;2023-04-15T04:22:14;12.23;;;8.57;;
52542;SDS011;38449;52.696;6.186;2023-04-15T04:24:41;12.20;;;8.25;;
52542;SDS011;38449;52.696;6.186;2023-04-15T04:27:07;12.57;;;9.25;;
52542;SDS011;38449;52.696;6.186;2023-04-15T04:29:33;11.10;;;7.70;;
52542;SDS011;38449;52.696;6.186;2023-04-15T04:31:59;12.15;;;8.77;;
52542;SDS011;38449;52.696;6.186;2023-04-15T04:34:26;13.20;;;8.63;;
52542;SDS011;38449;52.696;6.186;2023-04-15T04:36:52;13.15;;;9.00;;
52542;SDS011;38449;52.696;6.186;2023-04-15T04:39:18;12.10;;;7.55;;
52542;SDS011;38449;52.696;6.186;2023-04-15T04:41:45;15.23;;;8.73;;
52542;SDS011;38449;52.696;6.186;2023-04-15T04:44:11;11.27;;;8.68;;
52542;SDS011;38449;52.696;6.186;2023-04-15T04:46:37;14.02;;;8.60;;
52542;SDS011;38449;52.696;6.186;2023-04-15T04:49:06;11.70;;;8.90;;
52542;SDS011;38449;52.696;6.186;2023-04-15T04:51:32;12.60;;;9.60;;
52542;SDS011;38449;52.696;6.186;2023-04-15T04:53:59;12.57;;;9.27;;
52542;SDS011;38449;52.696;6.186;2023-04-15T04:56:25;15.40;;;9.82;;
52542;SDS011;38449;52.696;6.186;2023-04-15T04:58:51;14.52;;;9.15;;
52542;SDS011;38449;52.696;6.186;2023-04-15T05:01:18;13.88;;;9.25;;
52542;SDS011;38449;52.696;6.186;2023-04-15T05:03:44;12.65;;;8.55;;
52542;SDS011;38449;52.696;6.186;2023-04-15T05:06:10;12.38;;;8.80;;
52542;SDS011;38449;52.696;6.186;2023-04-15T05:08:36;12.65;;;9.60;;
52542;SDS011;38449;52.696;6.186;2023-04-15T05:11:03;14.65;;;8.82;;
52542;SDS011;38449;52.696;6.186;2023-04-15T05:13:29;14.93;;;10.10;;
52542;SDS011;38449;52.696;6.186;2023-04-15T05:15:56;12.10;;;9.23;;
52542;SDS011;38449;52.696;6.186;2023-04-15T05:18:28;12.95;;;10.55;;
52542;SDS011;38449;52.696;6.186;2023-04-15T05:20:55;13.48;;;9.75;;
52542;SDS011;38449;52.696;6.186;2023-04-15T05:23:21;13.85;;;8.48;;
52542;SDS011;38449;52.696;6.186;2023-04-15T05:25:48;13.40;;;8.85;;
52542;SDS011;38449;52.696;6.186;2023-04-15T05:28:14;13.23;;;8.90;;
52542;SDS011;38449;52.696;6.186;2023-04-15T05:30:41;12.38;;;8.00;;
52542;SDS011;38449;52.696;6.186;2023-04-15T05:33:07;12.05;;;8.75;;
52542;SDS011;38449;52.696;6.186;2023-04-15T05:35:33;14.48;;;10.10;;
52542;SDS011;38449;52.696;6.186;2023-04-15T05:38:00;12.25;;;9.90;;
52542;SDS011;38449;52.696;6.186;2023-04-15T05:40:26;14.57;;;8.98;;
52542;SDS011;38449;52.696;6.186;2023-04-15T05:42:53;13.48;;;9.57;;
52542;SDS011;38449;52.696;6.186;2023-04-15T05:45:20;13.40;;;10.20;;
52542;SDS011;38449;52.696;6.186;2023-04-15T05:47:46;12.18;;;9.60;;
52542;SDS011;38449;52.696;6.186;2023-04-15T05:50:15;13.93;;;10.35;;
52542;SDS011;38449;52.696;6.186;2023-04-15T05:52:41;12.00;;;9.02;;
52542;SDS011;38449;52.696;6.186;2023-04-15T05:55:07;13.80;;;9.30;;
52542;SDS011;38449;52.696;6.186;2023-04-15T05:57:34;15.38;;;9.85;;
52542;SDS011;38449;52.696;6.186;2023-04-15T06:00:01;14.73;;;9.65;;
52542;SDS011;38449;52.696;6.186;2023-04-15T06:02:28;12.35;;;9.07;;
52542;SDS011;38449;52.696;6.186;2023-04-15T06:04:54;13.20;;;10.00;;
52542;SDS011;38449;52.696;6.186;2023-04-15T06:07:20;14.68;;;9.52;;
52542;SDS011;38449;52.696;6.186;2023-04-15T06:09:47;14.43;;;9.35;;
52542;SDS011;38449;52.696;6.186;2023-04-15T06:12:14;13.35;;;9.15;;
52542;SDS011;38449;52.696;6.186;2023-04-15T06:14:40;15.27;;;10.25;;
52542;SDS011;38449;52.696;6.186;2023-04-15T06:17:06;13.80;;;9.25;;
52542;SDS011;38449;52.696;6.186;2023-04-15T06:19:33;12.98;;;8.75;;
52542;SDS011;38449;52.696;6.186;2023-04-15T06:22:01;13.25;;;9.05;;
52542;SDS011;38449;52.696;6.186;2023-04-15T06:24:28;13.10;;;9.48;;
52542;SDS011;38449;52.696;6.186;2023-04-15T06:26:54;12.35;;;8.43;;
52542;SDS011;38449;52.696;6.186;2023-04-15T06:29:20;11.68;;;8.88;;
52542;SDS011;38449;52.696;6.186;2023-04-15T06:31:47;13.57;;;10.15;;
52542;SDS011;38449;52.696;6.186;2023-04-15T06:34:14;11.13;;;7.72;;
52542;SDS011;38449;52.696;6.186;2023-04-15T06:36:40;12.10;;;7.95;;
52542;SDS011;38449;52.696;6.186;2023-04-15T06:39:06;11.38;;;8.32;;
52542;SDS011;38449;52.696;6.186;2023-04-15T06:41:33;12.88;;;8.23;;
52542;SDS011;38449;52.696;6.186;2023-04-15T06:44:00;11.38;;;8.63;;
52542;SDS011;38449;52.696;6.186;2023-04-15T06:46:27;10.98;;;8.00;;
52542;SDS011;38449;52.696;6.186;2023-04-15T06:48:53;11.70;;;7.57;;
52542;SDS011;38449;52.696;6.186;2023-04-15T06:51:19;10.75;;;8.77;;
52542;SDS011;38449;52.696;6.186;2023-04-15T06:53:46;11.70;;;7.50;;
52542;SDS011;38449;52.696;6.186;2023-04-15T06:56:12;10.43;;;8.20;;
52542;SDS011;38449;52.696;6.186;2023-04-15T06:58:38;12.10;;;7.82;;
52542;SDS011;38449;52.696;6.186;2023-04-15T07:01:05;13.35;;;9.02;;
52542;SDS011;38449;52.696;6.186;2023-04-15T07:03:31;10.77;;;7.82;;
52542;SDS011;38449;52.696;6.186;2023-04-15T07:05:59;11.98;;;8.13;;
52542;SDS011;38449;52.696;6.186;2023-04-15T07:08:35;10.55;;;7.90;;
52542;SDS011;38449;52.696;6.186;2023-04-15T07:11:01;11.23;;;7.97;;
52542;SDS011;38449;52.696;6.186;2023-04-15T07:13:29;10.02;;;7.22;;
52542;SDS011;38449;52.696;6.186;2023-04-15T07:15:57;12.80;;;8.07;;
52542;SDS011;38449;52.696;6.186;2023-04-15T07:18:23;11.65;;;8.30;;
52542;SDS011;38449;52.696;6.186;2023-04-15T07:20:50;10.18;;;7.55;;
52542;SDS011;38449;52.696;6.186;2023-04-15T07:23:16;11.38;;;7.78;;
52542;SDS011;38449;52.696;6.186;2023-04-15T07:25:43;14.75;;;8.48;;
52542;SDS011;38449;52.696;6.186;2023-04-15T07:28:09;11.35;;;8.18;;
52542;SDS011;38449;52.696;6.186;2023-04-15T07:30:36;11.70;;;8.15;;
52542;SDS011;38449;52.696;6.186;2023-04-15T07:33:03;12.15;;;7.60;;
52542;SDS011;38449;52.696;6.186;2023-04-15T07:35:29;11.15;;;7.80;;
52542;SDS011;38449;52.696;6.186;2023-04-15T07:37:56;10.88;;;7.93;;
52542;SDS011;38449;52.696;6.186;2023-04-15T07:40:22;9.05;;;7.05;;
52542;SDS011;38449;52.696;6.186;2023-04-15T07:42:48;12.00;;;8.25;;
52542;SDS011;38449;52.696;6.186;2023-04-15T07:45:15;9.32;;;6.25;;
52542;SDS011;38449;52.696;6.186;2023-04-15T07:47:41;8.48;;;6.72;;
52542;SDS011;38449;52.696;6.186;2023-04-15T07:50:08;9.55;;;6.45;;
52542;SDS011;38449;52.696;6.186;2023-04-15T07:52:35;8.57;;;6.20;;
52542;SDS011;38449;52.696;6.186;2023-04-15T07:55:04;10.30;;;7.00;;
52542;SDS011;38449;52.696;6.186;2023-04-15T07:57:34;10.13;;;6.72;;
52542;SDS011;38449;52.696;6.186;2023-04-15T08:00:01;9.13;;;6.30;;
52542;SDS011;38449;52.696;6.186;2023-04-15T08:02:32;8.27;;;5.72;;
52542;SDS011;38449;52.696;6.186;2023-04-15T08:04:59;9.20;;;6.45;;
52542;SDS011;38449;52.696;6.186;2023-04-15T08:07:27;9.25;;;6.32;;
52542;SDS011;38449;52.696;6.186;2023-04-15T08:09:54;6.78;;;5.35;;
52542;SDS011;38449;52.696;6.186;2023-04-15T08:12:20;8.52;;;5.57;;
52542;SDS011;38449;52.696;6.186;2023-04-15T08:14:47;7.93;;;6.03;;
52542;SDS011;38449;52.696;6.186;2023-04-15T08:17:14;8.90;;;5.80;;
52542;SDS011;38449;52.696;6.186;2023-04-15T08:19:40;8.68;;;6.65;;
52542;SDS011;38449;52.696;6.186;2023-04-15T08:22:07;9.27;;;6.32;;
52542;SDS011;38449;52.696;6.186;2023-04-15T08:24:33;8.52;;;6.80;;
52542;SDS011;38449;52.696;6.186;2023-04-15T08:26:59;9.68;;;6.65;;
52542;SDS011;38449;52.696;6.186;2023-04-15T08:29:29;9.80;;;6.75;;
52542;SDS011;38449;52.696;6.186;2023-04-15T08:31:55;7.63;;;5.75;;
52542;SDS011;38449;52.696;6.186;2023-04-15T08:34:22;8.23;;;6.28;;
52542;SDS011;38449;52.696;6.186;2023-04-15T08:36:48;8.32;;;6.30;;
52542;SDS011;38449;52.696;6.186;2023-04-15T08:39:15;10.52;;;6.07;;
52542;SDS011;38449;52.696;6.186;2023-04-15T08:41:50;8.50;;;5.53;;
52542;SDS011;38449;52.696;6.186;2023-04-15T08:44:22;8.25;;;5.30;;
52542;SDS011;38449;52.696;6.186;2023-04-15T08:46:50;6.90;;;5.35;;
52542;SDS011;38449;52.696;6.186;2023-04-15T08:49:17;7.63;;;5.40;;
52542;SDS011;38449;52.696;6.186;2023-04-15T08:51:49;7.35;;;5.22;;
52542;SDS011;38449;52.696;6.186;2023-04-15T08:54:16;6.03;;;4.35;;
52542;SDS011;38449;52.696;6.186;2023-04-15T08:56:43;8.93;;;4.75;;
52542;SDS011;38449;52.696;6.186;2023-04-15T08:59:10;6.18;;;4.10;;
52542;SDS011;38449;52.696;6.186;2023-04-15T09:01:37;7.18;;;4.78;;
52542;SDS011;38449;52.696;6.186;2023-04-15T09:04:10;6.97;;;4.13;;
52542;SDS011;38449;52.696;6.186;2023-04-15T09:06:38;7.30;;;4.53;;
52542;SDS011;38449;52.696;6.186;2023-04-15T09:09:04;8.40;;;4.35;;
52542;SDS011;38449;52.696;6.186;2023-04-15T09:11:31;6.95;;;4.47;;
52542;SDS011;38449;52.696;6.186;2023-04-15T09:13:57;7.30;;;4.38;;
52542;SDS011;38449;52.696;6.186;2023-04-15T09:16:23;6.63;;;4.45;;
52542;SDS011;38449;52.696;6.186;2023-04-15T09:18:50;6.60;;;4.40;;
52542;SDS011;38449;52.696;6.186;2023-04-15T09:21:16;6.93;;;4.50;;
52542;SDS011;38449;52.696;6.186;2023-04-15T09:23:57;9.05;;;4.85;;
52542;SDS011;38449;52.696;6.186;2023-04-15T09:29:08;7.28;;;4.20;;
52542;SDS011;38449;52.696;6.186;2023-04-15T09:31:35;7.38;;;4.80;;
52542;SDS011;38449;52.696;6.186;2023-04-15T09:34:02;5.45;;;4.60;;
52542;SDS011;38449;52.696;6.186;2023-04-15T09:36:28;8.02;;;4.60;;
52542;SDS011;38449;52.696;6.186;2023-04-15T09:39:01;5.25;;;4.03;;
52542;SDS011;38449;52.696;6.186;2023-04-15T09:41:27;4.88;;;3.42;;
52542;SDS011;38449;52.696;6.186;2023-04-15T09:43:54;5.57;;;3.72;;
52542;SDS011;38449;52.696;6.186;2023-04-15T09:46:20;6.45;;;4.13;;
52542;SDS011;38449;52.696;6.186;2023-04-15T09:49:09;6.13;;;3.88;;
52542;SDS011;38449;52.696;6.186;2023-04-15T09:51:36;6.72;;;4.13;;
52542;SDS011;38449;52.696;6.186;2023-04-15T09:54:03;5.70;;;3.90;;
52542;SDS011;38449;52.696;6.186;2023-04-15T09:56:33;6.88;;;4.57;;
52542;SDS011;38449;52.696;6.186;2023-04-15T09:59:02;5.25;;;3.42;;
52542;SDS011;38449;52.696;6.186;2023-04-15T10:01:30;4.50;;;3.10;;
52542;SDS011;38449;52.696;6.186;2023-04-15T10:03:56;4.70;;;3.20;;
52542;SDS011;38449;52.696;6.186;2023-04-15T10:06:25;6.32;;;2.90;;
52542;SDS011;38449;52.696;6.186;2023-04-15T10:08:52;4.28;;;2.83;;
52542;SDS011;38449;52.696;6.186;2023-04-15T10:11:19;4.25;;;2.60;;
52542;SDS011;38449;52.696;6.186;2023-04-15T10:13:48;4.88;;;3.03;;
52542;SDS011;38449;52.696;6.186;2023-04-15T10:16:15;4.97;;;3.30;;
52542;SDS011;38449;52.696;6.186;2023-04-15T10:18:50;4.72;;;3.03;;
52542;SDS011;38449;52.696;6.186;2023-04-15T10:21:20;5.18;;;2.97;;
52542;SDS011;38449;52.696;6.186;2023-04-15T10:23:48;4.10;;;2.95;;
52542;SDS011;38449;52.696;6.186;2023-04-15T10:26:15;4.40;;;3.30;;
52542;SDS011;38449;52.696;6.186;2023-04-15T10:28:45;6.32;;;2.90;;
52542;SDS011;38449;52.696;6.186;2023-04-15T10:31:14;6.22;;;3.05;;
52542;SDS011;38449;52.696;6.186;2023-04-15T10:33:43;5.13;;;3.22;;
52542;SDS011;38449;52.696;6.186;2023-04-15T10:36:10;4.53;;;3.20;;
52542;SDS011;38449;52.696;6.186;2023-04-15T10:38:41;5.25;;;3.25;;
52542;SDS011;38449;52.696;6.186;2023-04-15T10:43:50;5.13;;;2.80;;
52542;SDS011;38449;52.696;6.186;2023-04-15T10:46:34;4.93;;;2.63;;
52542;SDS011;38449;52.696;6.186;2023-04-15T10:49:12;5.97;;;2.95;;
52542;SDS011;38449;52.696;6.186;2023-04-15T10:51:45;5.13;;;2.72;;
52542;SDS011;38449;52.696;6.186;2023-04-15T10:54:30;4.85;;;2.70;;
52542;SDS011;38449;52.696;6.186;2023-04-15T10:59:37;7.03;;;2.17;;
52542;SDS011;38449;52.696;6.186;2023-04-15T11:02:43;3.85;;;1.85;;
52542;SDS011;38449;52.696;6.186;2023-04-15T11:05:11;3.67;;;1.83;;
52542;SDS011;38449;52.696;6.186;2023-04-15T11:12:56;2.42;;;1.40;;
52542;SDS011;38449;52.696;6.186;2023-04-15T11:20:53;3.75;;;1.83;;
52542;SDS011;38449;52.696;6.186;2023-04-15T11:23:29;3.60;;;1.70;;
52542;SDS011;38449;52.696;6.186;2023-04-15T11:25:56;2.20;;;1.60;;
52542;SDS011;38449;52.696;6.186;2023-04-15T11:28:24;3.63;;;1.98;;
52542;SDS011;38449;52.696;6.186;2023-04-15T11:30:52;3.15;;;2.20;;
52542;SDS011;38449;52.696;6.186;2023-04-15T11:33:20;4.15;;;1.67;;
52542;SDS011;38449;52.696;6.186;2023-04-15T11:35:48;2.40;;;1.50;;
52542;SDS011;38449;52.696;6.186;2023-04-15T11:38:15;2.90;;;2.13;;
52542;SDS011;38449;52.696;6.186;2023-04-15T11:40:41;2.75;;;1.70;;
52542;SDS011;38449;52.696;6.186;2023-04-15T11:43:09;3.47;;;1.98;;
52542;SDS011;38449;52.696;6.186;2023-04-15T11:48:16;3.85;;;2.40;;
52542;SDS011;38449;52.696;6.186;2023-04-15T11:50:43;3.35;;;1.90;;
52542;SDS011;38449;52.696;6.186;2023-04-15T11:53:17;3.00;;;1.95;;
52542;SDS011;38449;52.696;6.186;2023-04-15T11:55:44;2.67;;;2.20;;
52542;SDS011;38449;52.696;6.186;2023-04-15T12:00:40;2.75;;;1.83;;
52542;SDS011;38449;52.696;6.186;2023-04-15T12:03:11;3.95;;;1.90;;
52542;SDS011;38449;52.696;6.186;2023-04-15T12:06:01;5.45;;;2.00;;
52542;SDS011;38449;52.696;6.186;2023-04-15T12:11:15;3.95;;;1.92;;
52542;SDS011;38449;52.696;6.186;2023-04-15T12:13:45;3.13;;;1.80;;
52542;SDS011;38449;52.696;6.186;2023-04-15T12:16:17;3.40;;;2.20;;
52542;SDS011;38449;52.696;6.186;2023-04-15T12:18:44;3.85;;;2.35;;
52542;SDS011;38449;52.696;6.186;2023-04-15T12:21:12;2.90;;;1.73;;
52542;SDS011;38449;52.696;6.186;2023-04-15T12:23:49;3.25;;;2.15;;
52542;SDS011;38449;52.696;6.186;2023-04-15T12:26:26;4.55;;;2.30;;
52542;SDS011;38449;52.696;6.186;2023-04-15T12:28:54;3.63;;;2.00;;
52542;SDS011;38449;52.696;6.186;2023-04-15T12:31:25;3.97;;;1.98;;
52542;SDS011;38449;52.696;6.186;2023-04-15T12:33:53;5.80;;;2.05;;
52542;SDS011;38449;52.696;6.186;2023-04-15T12:36:20;4.13;;;2.25;;
52542;SDS011;38449;52.696;6.186;2023-04-15T12:38:47;3.80;;;2.53;;
52542;SDS011;38449;52.696;6.186;2023-04-15T12:41:14;4.38;;;2.72;;
52542;SDS011;38449;52.696;6.186;2023-04-15T12:43:48;5.82;;;2.40;;
52542;SDS011;38449;52.696;6.186;2023-04-15T12:46:14;6.13;;;2.40;;
52542;SDS011;38449;52.696;6.186;2023-04-15T12:48:41;3.53;;;1.95;;
52542;SDS011;38449;52.696;6.186;2023-04-15T12:51:07;4.78;;;2.22;;
52542;SDS011;38449;52.696;6.186;2023-04-15T12:53:34;4.57;;;2.22;;
52542;SDS011;38449;52.696;6.186;2023-04-15T12:56:00;5.63;;;2.58;;
52542;SDS011;38449;52.696;6.186;2023-04-15T12:58:26;7.88;;;3.40;;
52542;SDS011;38449;52.696;6.186;2023-04-15T13:00:53;4.57;;;2.95;;
52542;SDS011;38449;52.696;6.186;2023-04-15T13:03:19;8.10;;;3.15;;
52542;SDS011;38449;52.696;6.186;2023-04-15T13:05:45;5.47;;;2.85;;
52542;SDS011;38449;52.696;6.186;2023-04-15T13:08:11;4.90;;;2.40;;
52542;SDS011;38449;52.696;6.186;2023-04-15T13:10:48;5.13;;;3.15;;
52542;SDS011;38449;52.696;6.186;2023-04-15T13:13:14;3.03;;;2.40;;
52542;SDS011;38449;52.696;6.186;2023-04-15T13:15:40;6.70;;;2.78;;
52542;SDS011;38449;52.696;6.186;2023-04-15T13:18:10;6.10;;;2.60;;
52542;SDS011;38449;52.696;6.186;2023-04-15T13:20:36;3.83;;;2.00;;
52542;SDS011;38449;52.696;6.186;2023-04-15T13:23:02;6.70;;;2.33;;
52542;SDS011;38449;52.696;6.186;2023-04-15T13:25:29;6.90;;;2.42;;
52542;SDS011;38449;52.696;6.186;2023-04-15T13:27:55;8.02;;;2.85;;
52542;SDS011;38449;52.696;6.186;2023-04-15T13:30:22;5.93;;;2.40;;
52542;SDS011;38449;52.696;6.186;2023-04-15T13:32:48;7.88;;;2.88;;
52542;SDS011;38449;52.696;6.186;2023-04-15T13:35:15;3.78;;;2.05;;
52542;SDS011;38449;52.696;6.186;2023-04-15T13:37:42;4.28;;;2.47;;
52542;SDS011;38449;52.696;6.186;2023-04-15T13:40:08;3.40;;;2.30;;
52542;SDS011;38449;52.696;6.186;2023-04-15T13:42:35;4.55;;;2.00;;
52542;SDS011;38449;52.696;6.186;2023-04-15T13:45:02;5.65;;;1.92;;
52542;SDS011;38449;52.696;6.186;2023-04-15T13:47:28;3.35;;;1.70;;
52542;SDS011;38449;52.696;6.186;2023-04-15T13:49:55;9.70;;;2.70;;
52542;SDS011;38449;52.696;6.186;2023-04-15T13:52:21;5.80;;;2.50;;
52542;SDS011;38449;52.696;6.186;2023-04-15T13:54:48;4.80;;;2.20;;
52542;SDS011;38449;52.696;6.186;2023-04-15T13:57:15;6.45;;;2.50;;
52542;SDS011;38449;52.696;6.186;2023-04-15T13:59:41;6.28;;;2.25;;
52542;SDS011;38449;52.696;6.186;2023-04-15T14:02:12;4.28;;;1.70;;
52542;SDS011;38449;52.696;6.186;2023-04-15T14:04:38;7.47;;;2.33;;
52542;SDS011;38449;52.696;6.186;2023-04-15T14:07:04;9.48;;;2.25;;
52542;SDS011;38449;52.696;6.186;2023-04-15T14:09:31;6.75;;;2.42;;
52542;SDS011;38449;52.696;6.186;2023-04-15T14:11:58;7.90;;;2.38;;
52542;SDS011;38449;52.696;6.186;2023-04-15T14:14:25;6.07;;;2.22;;
52542;SDS011;38449;52.696;6.186;2023-04-15T14:16:51;6.47;;;1.90;;
52542;SDS011;38449;52.696;6.186;2023-04-15T14:19:17;7.90;;;2.00;;
52542;SDS011;38449;52.696;6.186;2023-04-15T14:21:44;7.40;;;2.83;;
52542;SDS011;38449;52.696;6.186;2023-04-15T14:24:11;6.38;;;1.63;;
52542;SDS011;38449;52.696;6.186;2023-04-15T14:26:37;5.45;;;2.05;;
52542;SDS011;38449;52.696;6.186;2023-04-15T14:29:03;6.35;;;2.28;;
52542;SDS011;38449;52.696;6.186;2023-04-15T14:31:30;6.35;;;2.33;;
52542;SDS011;38449;52.696;6.186;2023-04-15T14:33:56;17.33;;;14.25;;
52542;SDS011;38449;52.696;6.186;2023-04-15T14:36:22;6.68;;;3.25;;
52542;SDS011;38449;52.696;6.186;2023-04-15T14:38:48;9.32;;;6.05;;
52542;SDS011;38449;52.696;6.186;2023-04-15T14:41:15;20.13;;;15.38;;
52542;SDS011;38449;52.696;6.186;2023-04-15T14:43:41;4.90;;;2.17;;
52542;SDS011;38449;52.696;6.186;2023-04-15T14:46:09;7.07;;;4.00;;
52542;SDS011;38449;52.696;6.186;2023-04-15T14:48:35;8.98;;;4.20;;
52542;SDS011;38449;52.696;6.186;2023-04-15T14:51:02;8.52;;;4.93;;
52542;SDS011;38449;52.696;6.186;2023-04-15T14:53:28;5.50;;;1.80;;
52542;SDS011;38449;52.696;6.186;2023-04-15T14:55:54;24.15;;;12.23;;
52542;SDS011;38449;52.696;6.186;2023-04-15T14:58:20;8.15;;;4.35;;
52542;SDS011;38449;52.696;6.186;2023-04-15T15:00:47;12.48;;;9.90;;
52542;SDS011;38449;52.696;6.186;2023-04-15T15:03:13;11.18;;;6.90;;
52542;SDS011;38449;52.696;6.186;2023-04-15T15:05:40;12.25;;;7.00;;
52542;SDS011;38449;52.696;6.186;2023-04-15T15:08:07;6.18;;;3.28;;
52542;SDS011;38449;52.696;6.186;2023-04-15T15:10:34;6.63;;;2.42;;